Time;durP1;ratioP1;P1;durP2;ratioP2;P2;SDS_P1;SDS_P2;PMS_P1;PMS_P2;Temp;Humidity;BMP_temperature;BMP_pressure;BME280_temperature;BME280_humidity;BME280_pressure;Samples;Min_cycle;Max_cycle;Signal;HPM_P1;HPM_P2
2022/04/02 00:02:26;;;;;;;5.75;2.10;;;1.40;99.90;;;;;;5037638;28;20138;-75
2022/04/02 00:04:52;;;;;;;5.93;2.10;;;2.00;99.90;;;;;;5031937;28;20045;-75
2022/04/02 00:07:18;;;;;;;5.72;2.35;;;1.40;99.90;;;;;;5035437;28;20560;-75
2022/04/02 00:09:43;;;;;;;6.82;2.25;;;1.30;99.90;;;;;;5028746;28;20049;-75
2022/04/02 00:12:09;;;;;;;7.38;2.03;;;1.50;99.90;;;;;;5035369;28;20044;-76
2022/04/02 00:14:35;;;;;;;5.65;2.17;;;1.30;99.90;;;;;;5034849;28;20155;-75
2022/04/02 00:17:01;;;;;;;6.78;2.33;;;1.50;99.90;;;;;;5033961;28;20037;-75
2022/04/02 00:19:29;;;;;;;5.57;2.03;;;1.30;99.90;;;;;;5030934;28;20514;-75
2022/04/02 00:21:54;;;;;;;9.88;2.33;;;1.20;99.90;;;;;;5033273;28;20843;-75
2022/04/02 00:24:20;;;;;;;5.28;2.10;;;1.20;99.90;;;;;;5031557;28;20045;-75
2022/04/02 00:26:45;;;;;;;7.10;2.05;;;1.20;99.90;;;;;;5040824;28;20056;-74
2022/04/02 00:29:12;;;;;;;7.43;2.40;;;1.20;99.90;;;;;;5034597;28;20045;-74
2022/04/02 00:31:40;;;;;;;4.63;2.05;;;1.20;99.90;;;;;;5034537;28;20049;-74
2022/04/02 00:34:07;;;;;;;6.30;2.45;;;1.30;99.90;;;;;;5028253;28;20367;-74
2022/04/02 00:36:37;;;;;;;14.68;2.50;;;1.10;99.90;;;;;;5029723;28;20048;-74
2022/04/02 00:39:07;;;;;;;5.05;2.35;;;1.10;99.90;;;;;;5033828;28;20057;-74
2022/04/02 00:41:35;;;;;;;5.82;2.05;;;1.10;99.90;;;;;;5028228;28;20053;-74
2022/04/02 00:44:12;;;;;;;6.13;2.08;;;1.00;99.90;;;;;;5028337;28;20084;-74
2022/04/02 00:46:42;;;;;;;6.40;2.15;;;1.00;99.90;;;;;;5009011;28;20050;-74
2022/04/02 00:49:11;;;;;;;6.15;2.20;;;1.00;99.90;;;;;;5028336;28;20106;-74
2022/04/02 00:51:42;;;;;;;5.68;2.33;;;1.00;99.90;;;;;;5023265;28;20571;-75
2022/04/02 00:54:19;;;;;;;7.07;2.38;;;0.90;99.90;;;;;;5022724;28;20865;-74
2022/04/02 00:56:49;;;;;;;5.32;2.50;;;1.90;99.90;;;;;;5023583;28;20788;-74
2022/04/02 00:59:15;;;;;;;5.43;2.03;;;0.90;99.90;;;;;;5032306;28;20064;-74
2022/04/02 01:01:43;;;;;;;5.45;2.10;;;0.90;99.90;;;;;;5024608;28;20049;-74
2022/04/02 01:04:09;;;;;;;5.85;2.15;;;0.90;99.90;;;;;;5025676;28;20076;-73
2022/04/02 01:06:35;;;;;;;6.32;2.60;;;0.90;99.90;;;;;;5024665;28;20146;-74
2022/04/02 01:09:01;;;;;;;8.27;2.67;;;0.90;99.90;;;;;;5033616;28;20608;-74
2022/04/02 01:11:41;;;;;;;7.65;2.83;;;0.80;99.90;;;;;;5035816;28;20064;-74
2022/04/02 01:14:08;;;;;;;6.80;2.17;;;0.80;99.90;;;;;;5025728;28;20071;-74
2022/04/02 01:16:37;;;;;;;7.97;2.65;;;0.80;99.90;;;;;;5036376;28;20811;-75
2022/04/02 01:19:06;;;;;;;4.30;2.13;;;1.50;99.90;;;;;;5028282;28;20782;-74
2022/04/02 01:21:34;;;;;;;6.25;2.50;;;0.80;99.90;;;;;;5030456;28;20552;-74
2022/04/02 01:24:00;;;;;;;5.38;2.33;;;0.80;99.90;;;;;;5034505;28;20037;-74
2022/04/02 01:26:26;;;;;;;5.68;2.15;;;0.70;99.90;;;;;;5028469;28;20143;-74
2022/04/02 01:28:55;;;;;;;6.70;2.55;;;0.70;99.90;;;;;;5027832;28;20061;-74
2022/04/02 01:31:22;;;;;;;8.38;2.92;;;0.70;99.90;;;;;;5034151;28;20520;-74
2022/04/02 01:33:49;;;;;;;6.95;3.45;;;0.70;99.90;;;;;;5017100;28;20087;-74
2022/04/02 01:36:15;;;;;;;5.28;2.10;;;0.70;99.90;;;;;;5028939;28;20037;-74
2022/04/02 01:38:41;;;;;;;6.20;2.33;;;0.60;99.90;;;;;;5033480;28;20048;-74
2022/04/02 01:41:07;;;;;;;6.10;2.33;;;0.90;99.90;;;;;;5029499;28;20091;-74
2022/04/02 01:43:34;;;;;;;5.20;1.90;;;0.60;99.90;;;;;;5024540;28;20136;-74
2022/04/02 01:46:04;;;;;;;6.18;2.20;;;0.60;99.90;;;;;;5033465;28;20063;-74
2022/04/02 01:48:30;;;;;;;8.02;2.75;;;0.60;99.90;;;;;;5027880;28;20176;-74
2022/04/02 01:50:56;;;;;;;4.88;2.00;;;0.60;99.90;;;;;;5027497;28;20056;-74
2022/04/02 01:53:23;;;;;;;4.65;1.98;;;0.60;99.90;;;;;;5002500;28;20061;-74
2022/04/02 01:55:50;;;;;;;5.75;2.60;;;0.60;99.90;;;;;;5030598;28;20081;-74
2022/04/02 01:58:17;;;;;;;7.05;2.17;;;0.60;99.90;;;;;;5035231;28;20122;-74
2022/04/02 02:00:44;;;;;;;7.90;3.15;;;0.60;99.90;;;;;;5028475;28;20045;-74
2022/04/02 02:03:12;;;;;;;6.57;2.50;;;0.50;99.90;;;;;;5031237;28;20064;-74
2022/04/02 02:05:41;;;;;;;5.60;2.38;;;0.60;99.90;;;;;;5030176;28;20772;-73
2022/04/02 02:08:10;;;;;;;5.95;2.25;;;0.50;99.90;;;;;;5032555;28;20045;-74
2022/04/02 02:10:36;;;;;;;5.85;2.20;;;0.50;99.90;;;;;;5029528;28;20053;-74
2022/04/02 02:13:02;;;;;;;8.02;2.70;;;0.50;99.90;;;;;;5030459;28;20174;-74
2022/04/02 02:15:27;;;;;;;5.90;2.08;;;0.50;99.90;;;;;;5027796;28;20037;-74
2022/04/02 02:17:57;;;;;;;6.20;2.45;;;0.50;99.90;;;;;;5034321;28;20055;-74
2022/04/02 02:20:27;;;;;;;5.28;2.28;;;0.50;99.90;;;;;;5022300;28;20782;-74
2022/04/02 02:22:55;;;;;;;5.60;2.35;;;0.40;99.90;;;;;;5033884;28;20425;-74
2022/04/02 02:25:21;;;;;;;8.73;2.67;;;0.40;99.90;;;;;;5023833;28;20049;-74
2022/04/02 02:27:47;;;;;;;8.80;2.38;;;0.40;99.90;;;;;;5017192;28;20079;-74
2022/04/02 02:30:15;;;;;;;7.72;2.60;;;0.40;99.90;;;;;;5030377;28;20052;-74
2022/04/02 02:32:41;;;;;;;5.00;2.03;;;0.40;99.90;;;;;;5029681;28;20139;-74
2022/04/02 02:38:21;;;;;;;6.03;2.63;;;0.40;99.90;;;;;;5026743;28;20144;-74
2022/04/02 02:40:49;;;;;;;7.70;2.67;;;0.40;99.90;;;;;;5025299;28;20540;-74
2022/04/02 02:43:16;;;;;;;6.28;2.40;;;0.40;99.90;;;;;;5029019;28;20098;-74
2022/04/02 02:45:42;;;;;;;7.10;2.70;;;0.40;99.90;;;;;;5030933;28;20060;-74
2022/04/02 02:48:09;;;;;;;5.97;2.30;;;0.40;99.90;;;;;;5027432;28;20144;-74
2022/04/02 02:50:37;;;;;;;5.75;2.67;;;0.40;99.90;;;;;;5029119;28;20705;-73
2022/04/02 02:53:03;;;;;;;5.35;2.05;;;0.50;99.90;;;;;;5025888;28;20702;-74
2022/04/02 02:55:28;;;;;;;6.28;2.47;;;0.50;99.90;;;;;;5030876;28;20049;-74
2022/04/02 02:57:54;;;;;;;6.45;2.38;;;0.40;99.90;;;;;;5027236;28;20049;-74
2022/04/02 03:00:20;;;;;;;6.72;2.40;;;0.50;99.90;;;;;;5042436;28;20087;-74
2022/04/02 03:02:47;;;;;;;7.43;1.75;;;0.50;99.90;;;;;;5035174;28;20591;-74
2022/04/02 03:05:16;;;;;;;7.32;1.92;;;0.50;99.90;;;;;;5034048;28;20119;-74
2022/04/02 03:07:51;;;;;;;5.70;2.20;;;0.50;99.90;;;;;;5019932;28;20095;-73
2022/04/02 03:10:22;;;;;;;6.70;2.00;;;0.50;99.90;;;;;;5023166;28;20049;-74
2022/04/02 03:12:50;;;;;;;5.97;1.88;;;0.50;99.90;;;;;;5037499;28;20085;-74
2022/04/02 03:15:16;;;;;;;5.63;2.03;;;0.40;99.90;;;;;;5034372;28;20044;-74
2022/04/02 03:17:46;;;;;;;6.15;1.63;;;0.40;99.90;;;;;;5037115;28;20056;-74
2022/04/02 03:20:13;;;;;;;5.85;1.63;;;0.40;99.90;;;;;;5028716;28;20079;-74
2022/04/02 03:22:45;;;;;;;6.07;2.25;;;0.40;99.90;;;;;;5027509;28;20048;-74
2022/04/02 03:25:17;;;;;;;5.50;2.03;;;0.40;99.90;;;;;;5034018;28;20137;-74
2022/04/02 03:27:44;;;;;;;5.32;2.13;;;0.40;99.90;;;;;;5032471;28;20519;-74
2022/04/02 03:30:11;;;;;;;7.07;2.10;;;0.40;99.90;;;;;;5024147;28;20064;-74
2022/04/02 03:32:41;;;;;;;6.75;2.40;;;0.40;99.90;;;;;;5022805;28;20161;-74
2022/04/02 03:35:09;;;;;;;4.40;1.88;;;0.40;99.90;;;;;;5027025;28;20630;-74
2022/04/02 03:37:38;;;;;;;5.78;2.05;;;0.40;99.90;;;;;;5026488;28;20045;-74
2022/04/02 03:40:16;;;;;;;5.30;1.98;;;0.40;99.90;;;;;;5029068;28;20087;-74
2022/04/02 03:42:44;;;;;;;7.05;1.98;;;1.30;99.90;;;;;;5024330;28;20076;-74
2022/04/02 03:45:11;;;;;;;5.47;2.13;;;0.40;99.90;;;;;;5036513;28;20053;-74
2022/04/02 03:47:37;;;;;;;6.43;1.85;;;0.40;99.90;;;;;;5033993;28;20049;-74
2022/04/02 03:50:03;;;;;;;12.88;2.05;;;0.40;99.90;;;;;;5035127;28;20041;-74
2022/04/02 03:52:30;;;;;;;5.40;1.98;;;0.40;99.90;;;;;;5030302;28;20060;-74
2022/04/02 03:54:56;;;;;;;4.72;1.88;;;0.40;99.90;;;;;;5034854;28;20055;-74
2022/04/02 03:57:24;;;;;;;3.92;1.67;;;0.30;99.90;;;;;;5030610;28;20055;-74
2022/04/02 03:59:50;;;;;;;4.25;1.48;;;0.80;99.90;;;;;;5024642;28;20842;-74
2022/04/02 04:02:16;;;;;;;4.78;1.77;;;0.30;99.90;;;;;;5035236;28;20041;-74
2022/04/02 04:04:42;;;;;;;8.55;1.95;;;0.30;99.90;;;;;;5034146;28;20144;-74
2022/04/02 04:07:08;;;;;;;6.05;1.90;;;0.30;99.90;;;;;;5019592;28;20584;-74
2022/04/02 04:09:34;;;;;;;5.55;1.63;;;0.30;99.90;;;;;;5028547;28;20060;-74
2022/04/02 04:11:59;;;;;;;4.70;1.65;;;0.30;99.90;;;;;;5033419;28;20057;-74
2022/04/02 04:14:26;;;;;;;4.28;1.92;;;0.30;99.90;;;;;;5034182;28;20520;-74
2022/04/02 04:16:52;;;;;;;7.65;2.40;;;0.30;99.90;;;;;;5035386;28;20044;-74
2022/04/02 04:19:19;;;;;;;3.50;1.60;;;0.30;99.90;;;;;;5034907;28;20114;-73
2022/04/02 04:21:49;;;;;;;5.15;2.45;;;0.30;99.90;;;;;;5036063;28;20049;-74
2022/04/02 04:24:15;;;;;;;7.55;2.17;;;0.20;99.90;;;;;;5026041;28;20050;-74
2022/04/02 04:26:44;;;;;;;5.18;2.15;;;0.20;99.90;;;;;;5033416;28;20048;-74
2022/04/02 04:29:10;;;;;;;5.93;1.65;;;0.30;99.90;;;;;;5029550;28;20054;-74
2022/04/02 04:31:36;;;;;;;4.47;1.60;;;0.20;99.90;;;;;;5034234;28;20130;-74
2022/04/02 04:34:03;;;;;;;6.22;2.00;;;0.20;99.90;;;;;;5034945;28;20037;-74
2022/04/02 04:36:29;;;;;;;7.40;2.15;;;0.10;99.90;;;;;;5035010;28;20076;-74
2022/04/02 04:38:56;;;;;;;4.90;2.17;;;0.10;99.90;;;;;;5032543;28;20065;-74
2022/04/02 04:41:22;;;;;;;6.07;1.80;;;0.10;99.90;;;;;;5026849;28;20128;-74
2022/04/02 04:43:48;;;;;;;5.93;1.65;;;0.10;99.90;;;;;;5031265;28;20060;-74
2022/04/02 04:46:15;;;;;;;7.00;1.90;;;0.10;99.90;;;;;;5011377;28;20484;-74
2022/04/02 04:48:42;;;;;;;6.03;1.88;;;0.20;99.90;;;;;;5029982;28;20044;-73
2022/04/02 04:51:09;;;;;;;5.30;1.70;;;0.10;99.90;;;;;;5035936;28;20651;-74
2022/04/02 04:53:36;;;;;;;4.13;1.75;;;0.20;99.90;;;;;;5031394;28;20742;-74
2022/04/02 04:56:05;;;;;;;5.93;1.98;;;0.20;99.90;;;;;;5032699;28;20088;-74
2022/04/02 04:58:31;;;;;;;6.45;2.08;;;0.30;99.90;;;;;;5029058;28;20132;-74
2022/04/02 05:00:57;;;;;;;7.45;1.85;;;0.30;99.90;;;;;;5029242;28;20067;-74
2022/04/02 05:03:24;;;;;;;5.35;1.80;;;0.40;99.90;;;;;;5035841;28;20845;-74
2022/04/02 05:05:54;;;;;;;4.90;2.00;;;0.40;99.90;;;;;;5033963;28;20045;-73
2022/04/02 05:08:21;;;;;;;5.72;1.75;;;0.50;99.90;;;;;;5029841;28;20446;-74
2022/04/02 05:10:47;;;;;;;6.15;2.00;;;0.50;99.90;;;;;;5035283;28;20056;-74
2022/04/02 05:13:14;;;;;;;5.18;2.00;;;0.60;99.90;;;;;;5037771;28;20053;-74
2022/04/02 05:15:41;;;;;;;6.35;1.70;;;0.60;99.90;;;;;;5035114;28;20056;-74
2022/04/02 05:18:08;;;;;;;8.38;2.00;;;0.70;99.90;;;;;;5035687;28;20136;-74
2022/04/02 05:20:34;;;;;;;8.20;2.03;;;0.70;99.90;;;;;;5033656;28;20049;-74
2022/04/02 05:23:00;;;;;;;6.43;1.85;;;0.70;99.90;;;;;;5033875;28;20061;-74
2022/04/02 05:25:26;;;;;;;6.25;2.10;;;0.80;99.90;;;;;;5024735;28;20050;-74
2022/04/02 05:27:54;;;;;;;7.03;2.58;;;0.80;99.90;;;;;;5028080;28;20741;-74
2022/04/02 05:30:20;;;;;;;7.95;2.65;;;0.80;99.90;;;;;;5032368;28;20049;-74
2022/04/02 05:32:46;;;;;;;7.15;2.38;;;0.80;99.90;;;;;;5033342;28;20064;-74
2022/04/02 05:35:11;;;;;;;5.38;2.25;;;0.80;99.90;;;;;;5031204;28;20056;-74
2022/04/02 05:37:44;;;;;;;7.25;2.45;;;0.90;99.90;;;;;;5037848;28;20053;-74
2022/04/02 05:40:11;;;;;;;9.95;2.67;;;0.80;99.90;;;;;;5027816;28;20278;-74
2022/04/02 05:42:36;;;;;;;5.40;1.73;;;0.90;99.90;;;;;;5026232;28;20115;-75
2022/04/02 05:45:03;;;;;;;6.97;2.38;;;0.90;99.90;;;;;;5031864;28;20096;-75
2022/04/02 05:47:41;;;;;;;7.07;2.72;;;0.90;99.90;;;;;;5031958;28;20127;-75
2022/04/02 05:50:09;;;;;;;8.13;2.83;;;1.00;99.90;;;;;;5033622;28;20111;-75
2022/04/02 05:52:35;;;;;;;10.57;3.03;;;1.00;99.90;;;;;;5028458;28;20085;-75
2022/04/02 05:55:00;;;;;;;6.90;2.70;;;1.10;99.90;;;;;;5027639;28;20484;-74
2022/04/02 05:57:28;;;;;;;13.68;2.78;;;1.30;99.90;;;;;;5027872;28;20595;-75
2022/04/02 05:59:54;;;;;;;10.63;2.85;;;1.10;99.90;;;;;;5034497;28;20730;-74
2022/04/02 06:02:19;;;;;;;8.23;2.60;;;1.20;99.90;;;;;;5029880;28;20041;-75
2022/04/02 06:04:45;;;;;;;5.25;2.20;;;1.20;99.90;;;;;;5026056;28;20041;-75
2022/04/02 06:07:11;;;;;;;5.00;2.03;;;1.30;99.90;;;;;;5033355;28;20122;-75
2022/04/02 06:09:36;;;;;;;8.70;2.58;;;1.30;99.90;;;;;;5030057;28;20041;-75
2022/04/02 06:12:02;;;;;;;5.38;2.08;;;1.40;99.90;;;;;;5032611;28;20040;-74
2022/04/02 06:14:28;;;;;;;3.85;1.67;;;1.40;99.90;;;;;;5038551;28;21174;-85
2022/04/02 06:16:53;;;;;;;6.03;2.10;;;1.40;99.90;;;;;;5030651;28;20068;-72
2022/04/02 06:19:19;;;;;;;5.65;2.08;;;1.50;99.90;;;;;;5036914;28;20044;-71
2022/04/02 06:21:45;;;;;;;10.90;2.20;;;1.50;99.90;;;;;;5033119;28;20044;-72
2022/04/02 06:24:11;;;;;;;6.10;2.05;;;1.60;99.90;;;;;;5027538;28;20044;-71
2022/04/02 06:26:36;;;;;;;11.48;2.50;;;1.70;99.90;;;;;;5027852;28;20776;-72
2022/04/02 06:29:02;;;;;;;5.90;2.45;;;1.80;99.90;;;;;;5023414;28;20056;-72
2022/04/02 06:31:28;;;;;;;7.63;2.33;;;1.90;99.90;;;;;;5026177;28;20643;-71
2022/04/02 06:33:53;;;;;;;4.85;2.22;;;2.00;99.90;;;;;;5026512;28;20053;-72
2022/04/02 06:36:19;;;;;;;7.18;2.30;;;2.10;99.90;;;;;;5029159;28;20048;-72
2022/04/02 06:38:45;;;;;;;5.85;2.00;;;2.10;99.90;;;;;;5030690;28;20048;-72
2022/04/02 06:41:11;;;;;;;5.50;1.73;;;2.20;99.90;;;;;;5027849;28;20682;-72
2022/04/02 06:43:36;;;;;;;5.80;2.22;;;2.20;99.90;;;;;;5026448;28;20050;-72
2022/04/02 06:46:02;;;;;;;6.32;1.90;;;2.30;99.90;;;;;;5031851;28;20136;-72
2022/04/02 06:48:27;;;;;;;5.18;1.80;;;2.40;99.90;;;;;;5030416;28;20045;-72
2022/04/02 06:50:54;;;;;;;4.93;2.10;;;2.40;99.90;;;;;;5032438;28;20041;-72
2022/04/02 06:53:19;;;;;;;7.07;1.73;;;2.40;99.90;;;;;;5026642;28;20267;-74
2022/04/02 06:55:46;;;;;;;5.75;2.15;;;2.50;99.90;;;;;;5034662;28;20551;-74
2022/04/02 06:58:42;;;;;;;5.10;1.88;;;2.60;99.90;;;;;;5024528;28;20094;-73
2022/04/02 07:01:07;;;;;;;7.25;1.63;;;2.60;99.90;;;;;;5025177;28;20103;-73
2022/04/02 07:03:35;;;;;;;4.35;1.75;;;2.60;99.90;;;;;;5031570;28;20502;-73
2022/04/02 07:06:00;;;;;;;7.55;3.10;;;2.70;99.90;;;;;;5027421;28;20079;-75
2022/04/02 07:08:26;;;;;;;4.88;1.73;;;2.70;99.90;;;;;;5034692;28;20160;-74
2022/04/02 07:10:52;;;;;;;7.80;1.77;;;2.70;99.90;;;;;;5040623;28;20128;-74
2022/04/02 07:13:17;;;;;;;4.22;1.90;;;2.80;99.90;;;;;;5054257;28;20684;-74
2022/04/02 07:15:43;;;;;;;9.45;2.08;;;2.80;99.90;;;;;;5048453;28;20049;-74
2022/04/02 07:18:10;;;;;;;9.52;2.15;;;2.90;99.90;;;;;;5029030;28;20126;-73
2022/04/02 07:20:37;;;;;;;6.28;2.20;;;2.90;99.90;;;;;;5030125;28;20052;-76
2022/04/02 07:23:04;;;;;;;5.45;1.70;;;3.00;99.90;;;;;;5025190;28;20139;-75
2022/04/02 07:25:30;;;;;;;4.70;1.88;;;3.00;99.90;;;;;;5029906;28;20049;-75
2022/04/02 07:27:57;;;;;;;4.57;1.73;;;3.10;99.90;;;;;;5027295;28;20053;-75
2022/04/02 07:30:25;;;;;;;7.20;2.13;;;3.20;99.90;;;;;;5029429;28;20547;-75
2022/04/02 07:32:51;;;;;;;5.53;1.75;;;3.40;99.90;;;;;;5017187;28;20061;-75
2022/04/02 07:35:17;;;;;;;5.53;1.67;;;3.30;99.90;;;;;;5030033;28;20041;-80
2022/04/02 07:37:48;;;;;;;5.80;1.52;;;3.40;99.90;;;;;;5033833;28;20037;-85
2022/04/02 07:40:24;;;;;;;3.28;1.40;;;3.50;99.90;;;;;;5032734;28;20057;-73
2022/04/02 07:43:12;;;;;;;4.60;1.40;;;3.60;99.90;;;;;;5019268;28;20049;-73
2022/04/02 07:45:45;;;;;;;4.45;1.50;;;3.50;99.90;;;;;;5032327;28;20045;-78
2022/04/02 07:48:12;;;;;;;3.72;1.40;;;3.50;99.90;;;;;;5035060;28;20041;-73
2022/04/02 07:50:46;;;;;;;6.93;1.35;;;3.50;99.90;;;;;;5032185;28;20080;-73
2022/04/02 07:53:19;;;;;;;5.38;1.83;;;3.50;99.90;;;;;;5023061;28;20061;-72
2022/04/02 07:55:49;;;;;;;5.32;1.40;;;3.60;99.90;;;;;;5037135;28;20631;-73
2022/04/02 07:58:19;;;;;;;4.07;1.40;;;3.60;99.90;;;;;;5027021;28;20486;-72
2022/04/02 08:00:53;;;;;;;3.13;1.27;;;3.60;99.90;;;;;;5033543;28;20052;-73
2022/04/02 08:03:20;;;;;;;5.97;1.63;;;3.60;99.90;;;;;;5028939;28;20045;-72
2022/04/02 08:05:47;;;;;;;6.00;1.70;;;3.60;99.90;;;;;;5023460;28;20092;-72
2022/04/02 08:08:13;;;;;;;4.25;1.25;;;3.60;99.90;;;;;;5033426;28;20060;-72
2022/04/02 08:10:45;;;;;;;5.30;1.50;;;3.60;99.90;;;;;;5034526;28;20187;-72
2022/04/02 08:13:14;;;;;;;4.07;1.30;;;3.60;99.90;;;;;;5026777;28;20059;-72
2022/04/02 08:15:41;;;;;;;3.55;1.15;;;3.70;99.90;;;;;;5036486;28;20588;-72
2022/04/02 08:18:07;;;;;;;8.38;1.55;;;3.70;99.90;;;;;;5025839;28;20076;-72
2022/04/02 08:20:33;;;;;;;4.65;1.27;;;3.80;99.90;;;;;;5036422;28;20048;-72
2022/04/02 08:23:01;;;;;;;6.65;1.50;;;3.80;99.90;;;;;;5027800;28;20496;-72
2022/04/02 08:25:27;;;;;;;5.57;1.38;;;3.80;99.90;;;;;;5036760;28;20174;-75
2022/04/02 08:28:04;;;;;;;5.05;1.25;;;3.80;99.90;;;;;;5033121;28;20090;-73
2022/04/02 08:30:44;;;;;;;6.03;1.60;;;3.80;99.90;;;;;;5030580;28;20472;-73
2022/04/02 08:33:48;;;;;;;4.72;1.75;;;3.80;99.90;;;;;;5033015;28;20649;-73
2022/04/02 08:36:27;;;;;;;4.90;1.30;;;3.80;99.90;;;;;;5018450;28;20053;-73
2022/04/02 08:39:26;;;;;;;3.25;1.20;;;3.80;99.90;;;;;;5026088;28;20139;-72
2022/04/02 08:42:08;;;;;;;3.42;1.20;;;4.00;99.90;;;;;;5016810;28;20138;-74
2022/04/02 08:45:04;;;;;;;3.47;1.08;;;4.10;99.90;;;;;;5025562;28;20049;-75
2022/04/02 08:47:29;;;;;;;;;;;4.20;99.90;;;;;;5027726;28;20060;-77
2022/04/02 08:49:55;;;;;;;7.18;1.25;;;4.20;99.90;;;;;;5028480;28;20303;-76
2022/04/02 08:52:42;;;;;;;6.35;1.88;;;3.90;99.90;;;;;;5028991;28;20063;-79
2022/04/02 08:55:15;;;;;;;4.45;1.25;;;4.30;99.90;;;;;;5024561;28;20785;-77
2022/04/02 08:57:50;;;;;;;3.83;1.35;;;4.30;99.90;;;;;;5035006;28;20045;-77
2022/04/02 09:00:16;;;;;;;;;;;4.20;99.90;;;;;;5034930;28;20067;-75
2022/04/02 09:02:57;;;;;;;9.40;1.33;;;4.30;99.90;;;;;;5038496;28;19928;-76
2022/04/02 09:06:01;;;;;;;5.25;1.20;;;4.30;99.90;;;;;;5034998;28;20049;-77
2022/04/02 09:08:46;;;;;;;6.28;1.10;;;4.30;99.90;;;;;;5029513;28;20049;-77
2022/04/02 09:11:36;;;;;;;6.28;1.00;;;4.30;99.90;;;;;;5044009;28;20059;-76
2022/04/02 09:14:35;;;;;;;4.95;1.15;;;4.30;99.90;;;;;;5024830;28;20065;-76
2022/04/02 09:17:03;;;;;;;9.95;1.35;;;4.30;99.90;;;;;;5030701;28;20041;-77
2022/04/02 09:20:07;;;;;;;5.78;1.55;;;4.40;99.90;;;;;;5030038;28;20049;-82
2022/04/02 09:22:52;;;;;;;5.63;1.10;;;4.40;99.90;;;;;;5046676;28;20052;-80
2022/04/02 09:25:55;;;;;;;3.38;0.88;;;4.40;99.90;;;;;;5056416;28;20048;-81
2022/04/02 09:28:42;;;;;;;6.30;1.23;;;4.50;99.90;;;;;;5039048;28;20076;-80
2022/04/02 09:31:45;;;;;;;7.00;1.70;;;4.50;99.90;;;;;;5029484;28;20045;-74
2022/04/02 09:34:44;;;;;;;3.67;0.98;;;4.60;99.90;;;;;;5027513;28;20885;-74
2022/04/02 09:37:29;;;;;;;2.72;0.70;;;4.70;99.90;;;;;;5022410;28;20136;-75
2022/04/02 09:40:09;;;;;;;5.80;1.58;;;4.70;99.90;;;;;;5031439;28;20041;-74
2022/04/02 09:42:41;;;;;;;6.10;1.10;;;4.60;99.90;;;;;;5023332;28;20048;-74
2022/04/02 09:45:12;;;;;;;5.55;1.00;;;4.70;99.90;;;;;;5029593;28;20186;-74
2022/04/02 09:47:53;;;;;;;5.05;0.90;;;4.80;99.90;;;;;;5027624;28;20067;-74
2022/04/02 09:50:21;;;;;;;2.97;1.00;;;4.90;99.90;;;;;;5030184;28;20053;-72
2022/04/02 09:52:57;;;;;;;3.20;0.85;;;5.20;99.90;;;;;;5029673;28;20060;-73
2022/04/02 09:55:40;;;;;;;6.22;0.90;;;5.30;99.90;;;;;;5017264;28;20104;-79
2022/04/02 09:58:30;;;;;;;2.50;0.73;;;5.50;99.90;;;;;;5027156;28;20374;-77
2022/04/02 10:01:06;;;;;;;3.58;1.20;;;5.70;99.90;;;;;;5029177;28;20449;-77
2022/04/02 10:03:51;;;;;;;3.72;0.80;;;5.90;99.90;;;;;;5029297;28;20091;-77
2022/04/02 10:06:46;;;;;;;2.28;0.90;;;6.20;99.70;;;;;;5039134;28;20131;-78
2022/04/02 10:09:16;;;;;;;2.55;0.75;;;5.70;99.90;;;;;;5030177;28;20045;-77
2022/04/02 10:12:00;;;;;;;3.83;1.05;;;5.60;99.90;;;;;;5036229;28;20820;-78
2022/04/02 10:14:28;;;;;;;4.20;1.23;;;5.40;99.90;;;;;;5034816;28;20583;-77
2022/04/02 10:16:58;;;;;;;3.58;1.13;;;6.00;99.90;;;;;;5029071;28;20048;-77
2022/04/02 10:19:33;;;;;;;3.80;1.10;;;5.30;99.90;;;;;;5026749;28;20060;-77
2022/04/02 10:22:07;;;;;;;6.03;1.30;;;5.40;99.90;;;;;;5028948;28;20751;-77
2022/04/02 10:24:39;;;;;;;8.35;1.08;;;5.60;99.90;;;;;;5031808;28;20776;-77
2022/04/02 10:27:07;;;;;;;6.13;1.23;;;5.70;99.90;;;;;;5026171;28;20118;-77
2022/04/02 10:30:01;;;;;;;3.78;1.15;;;5.80;99.90;;;;;;5033323;28;20040;-76
2022/04/02 10:32:37;;;;;;;4.95;1.15;;;5.80;99.90;;;;;;5036601;28;20797;-76
2022/04/02 10:35:06;;;;;;;4.25;1.00;;;5.80;99.90;;;;;;5022449;28;20389;-76
2022/04/02 10:38:05;;;;;;;3.60;1.02;;;5.90;99.90;;;;;;5044330;28;20059;-77
2022/04/02 10:40:35;;;;;;;3.60;0.85;;;6.10;99.90;;;;;;5019816;28;20084;-76
2022/04/02 10:43:04;;;;;;;3.97;1.10;;;6.40;99.90;;;;;;5030447;28;20064;-77
2022/04/02 10:45:36;;;;;;;4.45;1.33;;;6.50;99.90;;;;;;5034727;28;20223;-77
2022/04/02 10:48:11;;;;;;;4.15;1.45;;;6.50;99.90;;;;;;5035719;28;20049;-77
2022/04/02 10:50:39;;;;;;;4.28;1.02;;;6.40;99.90;;;;;;5026887;28;20048;-77
2022/04/02 10:53:05;;;;;;;3.05;0.65;;;6.30;99.90;;;;;;5027162;28;20575;-77
2022/04/02 10:55:32;;;;;;;4.85;1.13;;;6.10;99.90;;;;;;5027671;28;20456;-77
2022/04/02 10:57:59;;;;;;;3.88;1.40;;;5.90;99.90;;;;;;5035192;28;20049;-77
2022/04/02 11:00:29;;;;;;;3.40;0.90;;;5.70;99.90;;;;;;5024267;28;20584;-77
2022/04/02 11:03:03;;;;;;;2.95;0.93;;;5.50;99.90;;;;;;5033679;28;20057;-77
2022/04/02 11:05:36;;;;;;;5.60;1.15;;;5.50;99.90;;;;;;5027233;28;20042;-77
2022/04/02 11:08:10;;;;;;;2.92;0.98;;;5.40;99.90;;;;;;5044250;28;20095;-76
2022/04/02 11:10:37;;;;;;;4.05;1.10;;;5.40;99.90;;;;;;5021531;28;20239;-76
2022/04/02 11:13:06;;;;;;;3.35;0.93;;;5.40;99.90;;;;;;5039672;28;20044;-77
2022/04/02 11:15:39;;;;;;;4.97;1.20;;;5.50;99.90;;;;;;5032502;28;20080;-76
2022/04/02 11:18:16;;;;;;;4.95;1.17;;;5.50;99.90;;;;;;5032168;28;20049;-76
2022/04/02 11:20:42;;;;;;;3.17;1.15;;;5.50;99.90;;;;;;5032525;28;20152;-76
2022/04/02 11:23:19;;;;;;;2.92;1.00;;;5.50;99.90;;;;;;5033401;28;20114;-76
2022/04/02 11:25:48;;;;;;;2.33;1.05;;;5.50;99.90;;;;;;5032402;28;20090;-76
2022/04/02 11:28:20;;;;;;;3.55;0.88;;;5.60;99.90;;;;;;5033034;28;20048;-76
2022/04/02 11:31:03;;;;;;;3.78;1.00;;;5.70;99.90;;;;;;5031685;28;20088;-76
2022/04/02 11:33:46;;;;;;;5.07;0.90;;;6.10;99.90;;;;;;5034817;28;20053;-76
2022/04/02 11:36:14;;;;;;;4.07;1.48;;;6.30;99.90;;;;;;5034031;28;20048;-77
2022/04/02 11:38:47;;;;;;;3.88;0.88;;;6.50;99.90;;;;;;5038804;28;20045;-76
2022/04/02 11:41:22;;;;;;;3.28;0.90;;;6.70;99.90;;;;;;5032387;28;20079;-76
2022/04/02 11:43:51;;;;;;;2.08;0.80;;;6.80;99.90;;;;;;5027274;28;20622;-76
2022/04/02 11:46:19;;;;;;;4.30;1.10;;;6.90;99.70;;;;;;5033803;28;20514;-76
2022/04/02 11:48:54;;;;;;;4.82;1.10;;;7.00;99.70;;;;;;5037545;28;20094;-76
2022/04/02 11:51:22;;;;;;;3.88;1.05;;;7.10;99.90;;;;;;5036157;28;20056;-76
2022/04/02 11:53:48;;;;;;;2.75;1.10;;;7.20;99.90;;;;;;5031538;28;20053;-76
2022/04/02 11:56:30;;;;;;;4.03;1.23;;;7.30;99.90;;;;;;5033816;28;20160;-76
2022/04/02 11:59:04;;;;;;;3.83;1.15;;;7.30;99.90;;;;;;5027167;28;20087;-80
2022/04/02 12:01:44;;;;;;;3.75;1.17;;;7.10;99.90;;;;;;5026559;28;20104;-77
2022/04/02 12:04:15;;;;;;;5.18;0.95;;;7.00;99.90;;;;;;5029076;28;20049;-76
2022/04/02 12:06:43;;;;;;;2.85;0.90;;;6.90;99.90;;;;;;5028971;28;20085;-76
2022/04/02 12:09:10;;;;;;;4.72;1.20;;;6.90;99.90;;;;;;5034931;28;20045;-75
2022/04/02 12:11:36;;;;;;;3.47;0.95;;;6.90;99.90;;;;;;5032048;28;20146;-76
2022/04/02 12:14:05;;;;;;;2.53;0.88;;;7.00;98.70;;;;;;5036194;28;20781;-77
2022/04/02 12:16:31;;;;;;;3.40;0.82;;;7.20;98.30;;;;;;5031876;28;20079;-77
2022/04/02 12:18:58;;;;;;;2.72;0.60;;;7.40;98.10;;;;;;5038198;28;20131;-75
2022/04/02 12:21:42;;;;;;;3.50;1.17;;;7.60;95.10;;;;;;5035399;28;20051;-77
2022/04/02 12:24:11;;;;;;;3.78;0.85;;;7.80;93.90;;;;;;5032613;28;20049;-77
2022/04/02 12:26:37;;;;;;;3.17;0.90;;;7.80;91.60;;;;;;5031139;28;20505;-77
2022/04/02 12:29:03;;;;;;;2.38;1.02;;;8.00;93.30;;;;;;5027835;28;20408;-83
2022/04/02 12:31:31;;;;;;;8.38;1.20;;;8.20;90.70;;;;;;5030482;28;20045;-92
2022/04/02 12:33:58;;;;;;;1.98;0.70;;;8.40;91.00;;;;;;5037896;28;20037;-90
2022/04/02 12:36:35;;;;;;;6.22;0.90;;;8.50;87.80;;;;;;5034596;28;20132;-91
2022/04/02 12:39:06;;;;;;;3.13;0.95;;;8.50;85.50;;;;;;5040269;28;20053;-90
2022/04/02 12:41:32;;;;;;;4.47;0.75;;;8.50;83.60;;;;;;5037634;28;20048;-91
2022/04/02 12:44:00;;;;;;;8.13;1.00;;;8.60;85.30;;;;;;5033125;28;20171;-82
2022/04/02 12:46:28;;;;;;;3.72;1.00;;;8.70;90.50;;;;;;5036892;28;20084;-89
2022/04/02 12:48:54;;;;;;;5.40;1.00;;;8.70;90.30;;;;;;5031132;28;20583;-79
2022/04/02 12:51:22;;;;;;;2.95;0.85;;;8.80;92.00;;;;;;5035319;28;20952;-74
2022/04/02 12:53:49;;;;;;;4.63;0.90;;;8.90;91.10;;;;;;5030538;28;20173;-74
2022/04/02 12:56:29;;;;;;;4.68;1.38;;;8.90;90.10;;;;;;5033224;28;20056;-79
2022/04/02 12:58:56;;;;;;;4.70;1.30;;;8.80;87.50;;;;;;5030357;28;20774;-76
2022/04/02 13:01:29;;;;;;;5.13;1.40;;;8.60;88.90;;;;;;5034757;28;20579;-75
2022/04/02 13:04:02;;;;;;;2.33;1.00;;;8.50;90.00;;;;;;5028188;28;20049;-78
2022/04/02 13:06:29;;;;;;;2.83;1.17;;;8.30;90.30;;;;;;5038874;28;20081;-86
2022/04/02 13:09:16;;;;;;;3.92;1.00;;;8.30;91.10;;;;;;5039660;28;20053;-82
2022/04/02 13:11:54;;;;;;;4.18;1.15;;;8.30;88.10;;;;;;5039759;28;20059;-79
2022/04/02 13:14:28;;;;;;;5.70;1.02;;;8.20;89.60;;;;;;5038289;28;20044;-78
2022/04/02 13:17:11;;;;;;;2.95;0.98;;;8.10;86.10;;;;;;5028257;28;20059;-78
2022/04/02 13:22:39;;;;;;;5.68;1.00;;;8.00;90.70;;;;;;5045935;28;20056;-77